Time,TemperatureF,DewpointF,PressureIn,WindDirection,WindDirectionDegrees,WindSpeedMPH,WindSpeedGustMPH,Humidity,HourlyPrecipIn,Conditions,Clouds,dailyrainin,SoftwareType,DateUTC
2013-06-25 00:01:00,67.9,66.4,29.75,ESE,111,0.0,0.0,95,0.00,,SKC,0.00,VWS V14.01,2013-06-25 05:01:00,
2013-06-25 00:06:00,68.1,66.6,29.75,ESE,111,0.0,4.0,95,0.00,,SKC,0.00,VWS V14.01,2013-06-25 05:06:00,
2013-06-25 00:11:00,68.1,66.6,29.75,ESE,111,0.0,4.0,95,0.00,,SKC,0.00,VWS V14.01,2013-06-25 05:11:00,
2013-06-25 00:16:00,68.1,66.6,29.75,ESE,111,1.0,4.0,95,0.00,,SKC,0.00,VWS V14.01,2013-06-25 05:16:00,
2013-06-25 00:21:00,68.1,66.6,29.75,ESE,111,0.0,4.0,95,0.00,,SKC,0.00,VWS V14.01,2013-06-25 05:21:00,
2013-06-25 00:26:00,68.1,66.6,29.75,ESE,111,0.0,4.0,95,0.00,,SKC,0.00,VWS V14.01,2013-06-25 05:26:00,
2013-06-25 00:31:00,68.0,66.2,29.75,ESE,111,0.0,0.0,94,0.00,,SKC,0.00,VWS V14.01,2013-06-25 05:31:00,
2013-06-25 00:36:00,67.9,66.1,29.75,ESE,111,0.0,0.0,94,0.00,,SKC,0.00,VWS V14.01,2013-06-25 05:36:00,
2013-06-25 00:41:00,67.7,65.9,29.75,ESE,111,0.0,0.0,94,0.00,,SKC,0.00,VWS V14.01,2013-06-25 05:41:00,
2013-06-25 00:46:00,67.5,65.7,29.74,ESE,111,0.0,0.0,94,0.00,,SKC,0.00,VWS V14.01,2013-06-25 05:46:00,
2013-06-25 00:51:00,67.2,65.4,29.74,ESE,111,0.0,0.0,94,0.00,,SKC,0.00,VWS V14.01,2013-06-25 05:51:00,
2013-06-25 00:56:00,67.0,65.2,29.74,ESE,111,0.0,1.0,94,0.00,,SKC,0.00,VWS V14.01,2013-06-25 05:56:00,
2013-06-25 01:01:00,66.8,65.3,29.74,ESE,111,0.0,0.0,95,0.00,,SKC,0.00,VWS V14.01,2013-06-25 06:01:00,
2013-06-25 01:06:00,66.6,64.8,29.74,ESE,111,0.0,1.0,94,0.00,,SKC,0.00,VWS V14.01,2013-06-25 06:06:00,
2013-06-25 01:11:00,66.5,65.0,29.74,ESE,111,0.0,1.0,95,0.00,,SKC,0.00,VWS V14.01,2013-06-25 06:11:00,
2013-06-25 01:16:00,66.4,64.9,29.74,ESE,111,0.0,1.0,95,0.00,,SKC,0.00,VWS V14.01,2013-06-25 06:16:00,
2013-06-25 01:21:00,66.3,64.8,29.74,ESE,111,0.0,4.0,95,0.00,,SKC,0.00,VWS V14.01,2013-06-25 06:21:00,
2013-06-25 01:26:00,66.2,64.7,29.74,ESE,111,0.0,4.0,95,0.00,,SKC,0.00,VWS V14.01,2013-06-25 06:26:00,
2013-06-25 01:31:00,66.2,64.7,29.74,ESE,111,0.0,1.0,95,0.00,,SKC,0.00,VWS V14.01,2013-06-25 06:31:00,
2013-06-25 01:36:00,66.1,64.6,29.74,ESE,111,0.0,1.0,95,0.00,,SKC,0.00,VWS V14.01,2013-06-25 06:36:00,
2013-06-25 01:41:00,66.0,64.2,29.74,ESE,111,0.0,1.0,94,0.00,,SKC,0.00,VWS V14.01,2013-06-25 06:41:00,
2013-06-25 01:46:00,65.8,64.0,29.74,ESE,111,0.0,1.0,94,0.00,,SKC,0.00,VWS V14.01,2013-06-25 06:46:00,
2013-06-25 01:51:00,65.6,63.8,29.74,ESE,111,0.0,1.0,94,0.00,,SKC,0.00,VWS V14.01,2013-06-25 06:51:00,
2013-06-25 01:56:00,65.5,64.0,29.74,ESE,111,0.0,1.0,95,0.00,,SKC,0.00,VWS V14.01,2013-06-25 06:56:00,
2013-06-25 02:01:00,65.4,63.9,29.74,ESE,111,0.0,0.0,95,0.00,,SKC,0.00,VWS V14.01,2013-06-25 07:01:00,
2013-06-25 02:06:00,65.2,63.4,29.75,ESE,111,0.0,0.0,94,0.00,,SKC,0.00,VWS V14.01,2013-06-25 07:06:00,
2013-06-25 02:11:00,65.0,63.5,29.75,ESE,111,0.0,0.0,95,0.00,,SKC,0.00,VWS V14.01,2013-06-25 07:11:00,
2013-06-25 02:16:00,64.9,63.4,29.74,ESE,111,0.0,1.0,95,0.00,,SKC,0.00,VWS V14.01,2013-06-25 07:16:00,
2013-06-25 02:21:00,64.8,63.3,29.74,ESE,111,0.0,1.0,95,0.00,,SKC,0.00,VWS V14.01,2013-06-25 07:21:00,
2013-06-25 02:26:00,64.9,63.4,29.74,ESE,111,0.0,1.0,95,0.00,,SKC,0.00,VWS V14.01,2013-06-25 07:26:00,
2013-06-25 02:31:00,64.8,63.3,29.74,ESE,111,0.0,0.0,95,0.00,,SKC,0.00,VWS V14.01,2013-06-25 07:31:00,
2013-06-25 02:36:00,64.8,63.3,29.74,ESE,111,0.0,1.0,95,0.00,,SKC,0.00,VWS V14.01,2013-06-25 07:36:00,
2013-06-25 02:41:00,64.7,63.2,29.75,ESE,111,0.0,1.0,95,0.00,,SKC,0.00,VWS V14.01,2013-06-25 07:41:00,
2013-06-25 02:46:00,64.7,63.2,29.75,ESE,111,0.0,1.0,95,0.00,,SKC,0.00,VWS V14.01,2013-06-25 07:46:00,
2013-06-25 02:51:00,64.5,63.0,29.75,ESE,111,0.0,1.0,95,0.00,,SKC,0.00,VWS V14.01,2013-06-25 07:51:00,
2013-06-25 02:56:00,64.4,62.9,29.75,ESE,111,0.0,1.0,95,0.00,,SKC,0.00,VWS V14.01,2013-06-25 07:56:00,
2013-06-25 03:01:00,64.3,62.8,29.75,ESE,111,0.0,0.0,95,0.00,,SKC,0.00,VWS V14.01,2013-06-25 08:01:00,
2013-06-25 03:06:00,64.0,62.5,29.74,ESE,111,0.0,0.0,95,0.00,,SKC,0.00,VWS V14.01,2013-06-25 08:06:00,
2013-06-25 03:11:00,63.8,62.3,29.74,ESE,111,0.0,0.0,95,0.00,,SKC,0.00,VWS V14.01,2013-06-25 08:11:00,
2013-06-25 03:16:00,63.5,62.0,29.74,ESE,111,0.0,0.0,95,0.00,,SKC,0.00,VWS V14.01,2013-06-25 08:16:00,
2013-06-25 03:21:00,63.3,61.8,29.74,ESE,111,0.0,0.0,95,0.00,,SKC,0.00,VWS V14.01,2013-06-25 08:21:00,
2013-06-25 03:26:00,63.3,62.1,29.74,ESE,111,0.0,0.0,96,0.00,,SKC,0.00,VWS V14.01,2013-06-25 08:26:00,
2013-06-25 03:31:00,63.5,62.3,29.74,ESE,111,0.0,0.0,96,0.00,,SKC,0.00,VWS V14.01,2013-06-25 08:31:00,
2013-06-25 03:38:00,63.4,62.2,29.74,ESE,111,0.0,0.0,96,0.00,,SKC,0.00,VWS V14.01,2013-06-25 08:38:00,
2013-06-25 03:43:00,63.5,62.3,29.74,ESE,111,0.0,0.0,96,0.00,,SKC,0.00,VWS V14.01,2013-06-25 08:43:00,
2013-06-25 03:48:00,63.6,62.7,29.74,ESE,111,0.0,0.0,97,0.00,,SKC,0.00,VWS V14.01,2013-06-25 08:48:00,
2013-06-25 03:53:00,63.5,62.3,29.75,ESE,111,0.0,0.0,96,0.00,,SKC,0.00,VWS V14.01,2013-06-25 08:53:00,
2013-06-25 03:58:00,63.4,62.2,29.75,ESE,111,0.0,0.0,96,0.00,,SKC,0.00,VWS V14.01,2013-06-25 08:58:00,
2013-06-25 04:03:00,63.2,62.0,29.75,ESE,111,0.0,0.0,96,0.00,,SKC,0.00,VWS V14.01,2013-06-25 09:03:00,
2013-06-25 04:08:00,63.2,62.0,29.75,ESE,111,0.0,0.0,96,0.00,,SKC,0.00,VWS V14.01,2013-06-25 09:08:00,
2013-06-25 04:13:00,63.0,61.8,29.76,ESE,111,0.0,0.0,96,0.00,,SKC,0.00,VWS V14.01,2013-06-25 09:13:00,
2013-06-25 04:18:00,62.8,61.7,29.76,ESE,111,0.0,1.0,96,0.00,,SKC,0.00,VWS V14.01,2013-06-25 09:18:00,
2013-06-25 04:23:00,62.9,62.0,29.76,ESE,111,0.0,1.0,97,0.00,,SKC,0.00,VWS V14.01,2013-06-25 09:23:00,
2013-06-25 04:28:00,63.0,62.1,29.76,ESE,111,0.0,1.0,97,0.00,,SKC,0.00,VWS V14.01,2013-06-25 09:28:00,
2013-06-25 04:33:00,63.2,62.3,29.76,ESE,111,0.0,1.0,97,0.00,,SKC,0.00,VWS V14.01,2013-06-25 09:33:00,
2013-06-25 04:38:00,63.3,62.4,29.75,ESE,111,0.0,1.0,97,0.00,,SKC,0.00,VWS V14.01,2013-06-25 09:38:00,
2013-06-25 04:43:00,63.3,62.4,29.75,ESE,111,0.0,1.0,97,0.00,,SKC,0.00,VWS V14.01,2013-06-25 09:43:00,
2013-06-25 04:48:00,63.2,62.0,29.74,ESE,111,0.0,1.0,96,0.00,,SKC,0.00,VWS V14.01,2013-06-25 09:48:00,
2013-06-25 04:53:00,63.0,61.8,29.74,ESE,111,0.0,1.0,96,0.00,,SKC,0.00,VWS V14.01,2013-06-25 09:53:00,
2013-06-25 04:58:00,62.9,61.8,29.74,ESE,111,0.0,1.0,96,0.00,,SKC,0.00,VWS V14.01,2013-06-25 09:58:00,
2013-06-25 05:03:00,62.8,61.7,29.74,ESE,111,0.0,0.0,96,0.00,,SKC,0.00,VWS V14.01,2013-06-25 10:03:00,
2013-06-25 05:08:00,62.5,61.3,29.74,ESE,111,0.0,0.0,96,0.00,,SKC,0.00,VWS V14.01,2013-06-25 10:08:00,
2013-06-25 05:13:00,62.3,61.2,29.74,ESE,111,0.0,0.0,96,0.00,,SKC,0.00,VWS V14.01,2013-06-25 10:13:00,
2013-06-25 05:18:00,62.1,61.0,29.74,ESE,111,0.0,0.0,96,0.00,,SKC,0.00,VWS V14.01,2013-06-25 10:18:00,
2013-06-25 05:23:00,62.0,60.8,29.74,ESE,111,0.0,0.0,96,0.00,,SKC,0.00,VWS V14.01,2013-06-25 10:23:00,
2013-06-25 05:28:00,62.0,61.1,29.74,ESE,111,0.0,0.0,97,0.00,,SKC,0.00,VWS V14.01,2013-06-25 10:28:00,
2013-06-25 05:33:00,62.0,61.1,29.74,ESE,111,0.0,0.0,97,0.00,,SKC,0.00,VWS V14.01,2013-06-25 10:33:00,
2013-06-25 05:38:00,61.9,60.8,29.74,ESE,111,0.0,0.0,96,0.00,,SKC,0.00,VWS V14.01,2013-06-25 10:38:00,
2013-06-25 05:43:00,61.6,60.5,29.74,ESE,111,0.0,0.0,96,0.00,,SKC,0.00,VWS V14.01,2013-06-25 10:43:00,
2013-06-25 05:48:00,61.6,60.7,29.73,ESE,111,0.0,0.0,97,0.00,,SKC,0.00,VWS V14.01,2013-06-25 10:48:00,
2013-06-25 05:53:00,61.6,60.5,29.73,ESE,111,0.0,0.0,96,0.00,,SKC,0.00,VWS V14.01,2013-06-25 10:53:00,
2013-06-25 05:58:00,61.4,60.2,29.73,ESE,111,0.0,0.0,96,0.00,,SKC,0.00,VWS V14.01,2013-06-25 10:58:00,
2013-06-25 06:03:00,61.6,60.7,29.73,ESE,111,0.0,1.0,97,0.00,,SKC,0.00,VWS V14.01,2013-06-25 11:03:00,
2013-06-25 06:08:00,61.8,60.9,29.73,ESE,111,0.0,1.0,97,0.00,,SKC,0.00,VWS V14.01,2013-06-25 11:08:00,
2013-06-25 06:13:00,62.1,61.5,29.73,ESE,111,0.0,1.0,98,0.00,,SKC,0.00,VWS V14.01,2013-06-25 11:13:00,
2013-06-25 06:18:00,62.4,61.8,29.73,ESE,111,0.0,1.0,98,0.00,,SKC,0.00,VWS V14.01,2013-06-25 11:18:00,
2013-06-25 06:23:00,62.5,61.9,29.73,ESE,111,0.0,1.0,98,0.00,,SKC,0.00,VWS V14.01,2013-06-25 11:23:00,
2013-06-25 06:28:00,62.7,62.1,29.73,ESE,111,0.0,1.0,98,0.00,,SKC,0.00,VWS V14.01,2013-06-25 11:28:00,
2013-06-25 06:33:00,62.9,62.3,29.73,ESE,111,0.0,0.0,98,0.00,,SKC,0.00,VWS V14.01,2013-06-25 11:33:00,
2013-06-25 06:38:00,63.1,62.5,29.73,ESE,111,0.0,0.0,98,0.00,,SKC,0.00,VWS V14.01,2013-06-25 11:38:00,
2013-06-25 06:43:00,63.3,62.7,29.73,ESE,111,0.0,0.0,98,0.00,,SKC,0.00,VWS V14.01,2013-06-25 11:43:00,
2013-06-25 06:48:00,63.5,62.9,29.73,ESE,111,0.0,0.0,98,0.00,,SKC,0.00,VWS V14.01,2013-06-25 11:48:00,
2013-06-25 06:53:00,63.8,63.2,29.73,ESE,111,0.0,0.0,98,0.00,,SKC,0.00,VWS V14.01,2013-06-25 11:53:00,
2013-06-25 06:58:00,64.0,63.4,29.73,ESE,111,0.0,1.0,98,0.00,,SKC,0.00,VWS V14.01,2013-06-25 11:58:00,
2013-06-25 07:03:00,64.3,63.7,29.73,ESE,111,1.0,5.0,98,0.00,,SKC,0.00,VWS V14.01,2013-06-25 12:03:00,
2013-06-25 07:08:00,64.6,64.0,29.73,ESE,111,0.0,5.0,98,0.00,,SKC,0.00,VWS V14.01,2013-06-25 12:08:00,
2013-06-25 07:13:00,64.9,64.3,29.73,ESE,111,1.0,5.0,98,0.00,,SKC,0.00,VWS V14.01,2013-06-25 12:13:00,
2013-06-25 07:18:00,65.2,64.3,29.73,ESE,111,0.0,5.0,97,0.00,,SKC,0.00,VWS V14.01,2013-06-25 12:18:00,
2013-06-25 07:23:00,65.4,64.5,29.73,ESE,110,0.0,5.0,97,0.00,,SKC,0.00,VWS V14.01,2013-06-25 12:23:00,
2013-06-25 07:28:00,65.7,64.8,29.73,East,92,2.0,5.0,97,0.00,,SKC,0.00,VWS V14.01,2013-06-25 12:28:00,
2013-06-25 07:33:00,66.0,64.8,29.73,East,86,3.0,5.0,96,0.00,,SKC,0.00,VWS V14.01,2013-06-25 12:33:00,
2013-06-25 07:38:00,66.2,64.7,29.73,East,84,3.0,6.0,95,0.00,,SKC,0.00,VWS V14.01,2013-06-25 12:38:00,
2013-06-25 07:43:00,66.5,64.7,29.73,ESE,121,0.0,6.0,94,0.00,,SKC,0.00,VWS V14.01,2013-06-25 12:43:00,
2013-06-25 07:48:00,66.9,65.1,29.73,ESE,105,2.0,7.0,94,0.00,,SKC,0.00,VWS V14.01,2013-06-25 12:48:00,
2013-06-25 07:53:00,67.4,65.6,29.73,ESE,104,1.0,7.0,94,0.00,,SKC,0.00,VWS V14.01,2013-06-25 12:53:00,
2013-06-25 07:58:00,67.8,65.4,29.73,East,99,1.0,7.0,92,0.00,,SKC,0.00,VWS V14.01,2013-06-25 12:58:00,
2013-06-25 08:03:00,68.3,65.9,29.73,East,99,0.0,0.0,92,0.00,,SKC,0.00,VWS V14.01,2013-06-25 13:03:00,
2013-06-25 08:08:00,68.6,65.9,29.73,ESE,117,2.0,5.0,91,0.00,,SKC,0.00,VWS V14.01,2013-06-25 13:08:00,
2013-06-25 08:13:00,68.9,66.2,29.73,ESE,117,2.0,5.0,91,0.00,,SKC,0.00,VWS V14.01,2013-06-25 13:13:00,
2013-06-25 08:18:00,69.5,66.4,29.73,ESE,106,0.0,5.0,90,0.00,,SKC,0.00,VWS V14.01,2013-06-25 13:18:00,
2013-06-25 08:23:00,70.1,66.4,29.73,East,98,2.0,6.0,88,0.00,,SKC,0.00,VWS V14.01,2013-06-25 13:23:00,
2013-06-25 08:28:00,70.3,66.2,29.73,East,96,1.0,6.0,87,0.00,,SKC,0.00,VWS V14.01,2013-06-25 13:28:00,
2013-06-25 08:33:00,70.3,65.9,29.72,ESE,108,5.0,8.0,86,0.00,,SKC,0.00,VWS V14.01,2013-06-25 13:33:00,
2013-06-25 08:38:00,70.5,66.4,29.73,East,88,3.0,8.0,87,0.00,,SKC,0.00,VWS V14.01,2013-06-25 13:38:00,
2013-06-25 08:43:00,70.8,66.4,29.73,ESE,111,5.0,10.0,86,0.00,,SKC,0.00,VWS V14.01,2013-06-25 13:43:00,
2013-06-25 08:48:00,71.0,66.6,29.73,ESE,119,4.0,10.0,86,0.00,,SKC,0.00,VWS V14.01,2013-06-25 13:48:00,
2013-06-25 08:53:00,71.3,66.9,29.73,East,86,3.0,10.0,86,0.00,,SKC,0.00,VWS V14.01,2013-06-25 13:53:00,
2013-06-25 08:58:00,71.7,66.9,29.73,ESE,106,6.0,10.0,85,0.00,,SKC,0.00,VWS V14.01,2013-06-25 13:58:00,
2013-06-25 09:03:00,72.0,66.9,29.73,East,91,6.0,8.0,84,0.00,,SKC,0.00,VWS V14.01,2013-06-25 14:03:00,
2013-06-25 09:08:00,72.0,67.2,29.73,ESE,117,0.0,8.0,85,0.00,,SKC,0.00,VWS V14.01,2013-06-25 14:08:00,
2013-06-25 09:13:00,72.4,66.9,29.73,East,99,7.0,12.0,83,0.00,,SKC,0.00,VWS V14.01,2013-06-25 14:13:00,
2013-06-25 09:18:00,72.5,67.1,29.73,ESE,111,5.0,12.0,83,0.00,,SKC,0.00,VWS V14.01,2013-06-25 14:18:00,
2013-06-25 09:23:00,72.6,67.2,29.72,ESE,115,5.0,12.0,83,0.00,,SKC,0.00,VWS V14.01,2013-06-25 14:23:00,
2013-06-25 09:28:00,73.0,67.9,29.72,East,92,6.0,12.0,84,0.00,,SKC,0.00,VWS V14.01,2013-06-25 14:28:00,
2013-06-25 09:33:00,73.3,67.8,29.72,ESE,111,2.0,6.0,83,0.00,,SKC,0.00,VWS V14.01,2013-06-25 14:33:00,
2013-06-25 09:38:00,73.6,67.8,29.72,ESE,106,6.0,8.0,82,0.00,,SKC,0.00,VWS V14.01,2013-06-25 14:38:00,
2013-06-25 09:43:00,74.0,67.4,29.72,East,84,6.0,8.0,80,0.00,,SKC,0.00,VWS V14.01,2013-06-25 14:43:00,
2013-06-25 09:48:00,74.4,68.2,29.72,SE,124,0.0,8.0,81,0.00,,SKC,0.00,VWS V14.01,2013-06-25 14:48:00,
2013-06-25 09:53:00,75.0,68.1,29.72,ESE,113,7.0,8.0,79,0.00,,SKC,0.00,VWS V14.01,2013-06-25 14:53:00,
2013-06-25 09:58:00,75.1,67.4,29.72,ESE,123,7.0,11.0,77,0.00,,SKC,0.00,VWS V14.01,2013-06-25 14:58:00,
2013-06-25 10:03:00,75.2,67.9,29.71,East,92,6.0,7.0,78,0.00,,SKC,0.00,VWS V14.01,2013-06-25 15:03:00,
2013-06-25 10:08:00,75.4,68.4,29.71,East,88,6.0,7.0,79,0.00,,SKC,0.00,VWS V14.01,2013-06-25 15:08:00,
2013-06-25 10:13:00,75.3,67.6,29.71,ENE,78,6.0,9.0,77,0.00,,SKC,0.00,VWS V14.01,2013-06-25 15:13:00,
2013-06-25 10:18:00,75.3,67.6,29.71,East,88,6.0,11.0,77,0.00,,SKC,0.00,VWS V14.01,2013-06-25 15:18:00,
2013-06-25 10:23:00,75.2,67.5,29.71,ESE,111,4.0,11.0,77,0.00,,SKC,0.00,VWS V14.01,2013-06-25 15:23:00,
2013-06-25 10:28:00,75.0,67.3,29.71,ENE,78,6.0,11.0,77,0.00,,SKC,0.00,VWS V14.01,2013-06-25 15:28:00,
2013-06-25 10:33:00,74.8,67.5,29.71,ESE,107,2.0,6.0,78,0.00,,SKC,0.00,VWS V14.01,2013-06-25 15:33:00,
2013-06-25 10:38:00,74.9,67.2,29.71,East,96,1.0,10.0,77,0.00,,SKC,0.00,VWS V14.01,2013-06-25 15:38:00,
2013-06-25 10:43:00,75.2,67.9,29.71,East,90,5.0,10.0,78,0.00,,SKC,0.00,VWS V14.01,2013-06-25 15:43:00,
2013-06-25 10:48:00,75.5,67.8,29.71,ESE,104,5.0,10.0,77,0.00,,SKC,0.00,VWS V14.01,2013-06-25 15:48:00,
2013-06-25 10:53:00,76.0,68.3,29.71,ESE,103,0.0,10.0,77,0.00,,SKC,0.00,VWS V14.01,2013-06-25 15:53:00,
2013-06-25 10:58:00,76.8,69.1,29.71,ESE,111,6.0,10.0,77,0.00,,SKC,0.00,VWS V14.01,2013-06-25 15:58:00,
2013-06-25 11:03:00,77.4,68.1,29.71,ESE,121,7.0,7.0,73,0.00,,SKC,0.00,VWS V14.01,2013-06-25 16:03:00,
2013-06-25 11:08:00,77.7,67.6,29.71,ESE,115,1.0,8.0,71,0.00,,SKC,0.00,VWS V14.01,2013-06-25 16:08:00,
2013-06-25 11:13:00,78.2,68.0,29.70,ESE,120,4.0,8.0,71,0.00,,SKC,0.00,VWS V14.01,2013-06-25 16:13:00,
2013-06-25 11:18:00,78.4,67.8,29.70,East,100,4.0,12.0,70,0.00,,SKC,0.00,VWS V14.01,2013-06-25 16:18:00,
2013-06-25 11:23:00,78.6,67.6,29.70,ESE,114,6.0,14.0,69,0.00,,SKC,0.00,VWS V14.01,2013-06-25 16:23:00,
2013-06-25 11:28:00,78.4,67.4,29.70,East,96,7.0,14.0,69,0.00,,SKC,0.00,VWS V14.01,2013-06-25 16:28:00,
2013-06-25 11:33:00,78.2,67.6,29.70,ESE,114,4.0,9.0,70,0.00,,SKC,0.00,VWS V14.01,2013-06-25 16:33:00,
2013-06-25 11:38:00,78.4,67.8,29.70,SE,144,6.0,9.0,70,0.00,,SKC,0.00,VWS V14.01,2013-06-25 16:38:00,
2013-06-25 11:43:00,79.0,68.8,29.70,SE,134,0.0,9.0,71,0.00,,SKC,0.00,VWS V14.01,2013-06-25 16:43:00,
2013-06-25 11:48:00,79.7,69.1,29.70,SE,144,0.0,9.0,70,0.00,,SKC,0.00,VWS V14.01,2013-06-25 16:48:00,
2013-06-25 11:53:00,80.1,68.6,29.70,ESE,109,5.0,9.0,68,0.00,,SKC,0.00,VWS V14.01,2013-06-25 16:53:00,
2013-06-25 11:58:00,80.3,67.5,29.70,SE,137,6.0,9.0,65,0.00,,SKC,0.00,VWS V14.01,2013-06-25 16:58:00,
2013-06-25 12:03:00,80.4,67.6,29.70,ESE,106,7.0,10.0,65,0.00,,SKC,0.00,VWS V14.01,2013-06-25 17:03:00,
2013-06-25 12:08:00,80.8,67.9,29.70,ESE,106,0.0,10.0,65,0.00,,SKC,0.00,VWS V14.01,2013-06-25 17:08:00,
2013-06-25 12:13:00,81.1,67.8,29.71,ESE,119,0.0,10.0,64,0.00,,SKC,0.00,VWS V14.01,2013-06-25 17:13:00,
2013-06-25 12:18:00,81.3,68.4,29.71,East,86,0.0,10.0,65,0.00,,SKC,0.00,VWS V14.01,2013-06-25 17:18:00,
2013-06-25 12:23:00,81.6,68.2,29.70,ESE,111,7.0,10.0,64,0.00,,SKC,0.00,VWS V14.01,2013-06-25 17:23:00,
2013-06-25 12:28:00,81.5,69.1,29.70,East,101,0.0,10.0,66,0.00,,SKC,0.00,VWS V14.01,2013-06-25 17:28:00,
2013-06-25 12:33:00,81.3,68.0,29.71,ENE,76,4.0,11.0,64,0.00,,SKC,0.00,VWS V14.01,2013-06-25 17:33:00,
2013-06-25 12:38:00,81.3,68.4,29.71,East,89,1.0,11.0,65,0.00,,SKC,0.00,VWS V14.01,2013-06-25 17:38:00,
2013-06-25 12:43:00,81.7,68.8,29.71,ENE,74,4.0,11.0,65,0.00,,SKC,0.00,VWS V14.01,2013-06-25 17:43:00,
2013-06-25 12:48:00,81.9,68.1,29.72,ENE,74,7.0,11.0,63,0.00,,SKC,0.00,VWS V14.01,2013-06-25 17:48:00,
2013-06-25 12:53:00,81.7,67.9,29.72,ESE,115,0.0,11.0,63,0.00,,SKC,0.00,VWS V14.01,2013-06-25 17:53:00,
2013-06-25 12:58:00,81.5,67.7,29.71,ESE,109,6.0,11.0,63,0.00,,SKC,0.00,VWS V14.01,2013-06-25 17:58:00,
2013-06-25 13:03:00,81.2,68.8,29.72,ESE,107,4.0,6.0,66,0.00,,SKC,0.00,VWS V14.01,2013-06-25 18:03:00,
2013-06-25 13:08:00,81.4,67.6,29.70,ENE,61,4.0,9.0,63,0.00,,SKC,0.00,VWS V14.01,2013-06-25 18:08:00,
2013-06-25 13:13:00,81.7,67.9,29.70,ESE,116,8.0,12.0,63,0.00,,SKC,0.00,VWS V14.01,2013-06-25 18:13:00,
2013-06-25 13:18:00,81.8,67.5,29.70,ESE,106,2.0,12.0,62,0.00,,SKC,0.00,VWS V14.01,2013-06-25 18:18:00,
2013-06-25 13:23:00,81.7,67.4,29.70,SE,124,5.0,12.0,62,0.00,,SKC,0.00,VWS V14.01,2013-06-25 18:23:00,
2013-06-25 13:28:00,81.7,67.4,29.70,East,79,8.0,12.0,62,0.00,,SKC,0.00,VWS V14.01,2013-06-25 18:28:00,
2013-06-25 13:33:00,82.0,67.7,29.70,East,95,9.0,12.0,62,0.00,,SKC,0.00,VWS V14.01,2013-06-25 18:33:00,
2013-06-25 13:38:00,82.0,68.2,29.71,ESE,117,4.0,12.0,63,0.00,,SKC,0.00,VWS V14.01,2013-06-25 18:38:00,
2013-06-25 13:43:00,82.2,69.3,29.70,East,82,2.0,12.0,65,0.00,,SKC,0.00,VWS V14.01,2013-06-25 18:43:00,
2013-06-25 13:48:00,82.5,69.1,29.70,ESE,119,6.0,12.0,64,0.00,,SKC,0.00,VWS V14.01,2013-06-25 18:48:00,
2013-06-25 13:53:00,82.4,69.0,29.70,East,87,4.0,12.0,64,0.00,,SKC,0.00,VWS V14.01,2013-06-25 18:53:00,
2013-06-25 13:58:00,82.6,69.2,29.70,East,90,1.0,12.0,64,0.00,,SKC,0.00,VWS V14.01,2013-06-25 18:58:00,
2013-06-25 14:03:00,82.9,69.5,29.70,East,86,5.0,6.0,64,0.00,,SKC,0.00,VWS V14.01,2013-06-25 19:03:00,
2013-06-25 14:08:00,82.9,69.5,29.70,ENE,75,0.0,11.0,64,0.00,,SKC,0.00,VWS V14.01,2013-06-25 19:08:00,
2013-06-25 14:13:00,82.9,70.4,29.70,East,90,7.0,11.0,66,0.00,,SKC,0.00,VWS V14.01,2013-06-25 19:13:00,
2013-06-25 14:18:00,83.0,69.6,29.70,East,88,0.0,11.0,64,0.00,,SKC,0.00,VWS V14.01,2013-06-25 19:18:00,
2013-06-25 14:23:00,83.2,69.3,29.69,East,88,6.0,11.0,63,0.00,,SKC,0.00,VWS V14.01,2013-06-25 19:23:00,
2013-06-25 14:28:00,83.4,67.6,29.69,ESE,103,5.0,13.0,59,0.00,,SKC,0.00,VWS V14.01,2013-06-25 19:28:00,
2013-06-25 14:33:00,83.6,68.7,29.70,East,86,2.0,8.0,61,0.00,,SKC,0.00,VWS V14.01,2013-06-25 19:33:00,
2013-06-25 14:38:00,83.6,67.3,29.69,ESE,115,6.0,11.0,58,0.00,,SKC,0.00,VWS V14.01,2013-06-25 19:38:00,
2013-06-25 14:43:00,83.0,67.7,29.69,ESE,115,2.0,11.0,60,0.00,,SKC,0.00,VWS V14.01,2013-06-25 19:43:00,
2013-06-25 14:48:00,82.9,68.6,29.69,East,96,4.0,11.0,62,0.00,,SKC,0.00,VWS V14.01,2013-06-25 19:48:00,
2013-06-25 14:53:00,82.9,68.6,29.69,East,100,5.0,11.0,62,0.00,,SKC,0.00,VWS V14.01,2013-06-25 19:53:00,
2013-06-25 14:58:00,83.2,67.9,29.69,ESE,111,4.0,11.0,60,0.00,,SKC,0.00,VWS V14.01,2013-06-25 19:58:00,
2013-06-25 15:03:00,83.5,68.2,29.69,ESE,110,1.0,7.0,60,0.00,,SKC,0.00,VWS V14.01,2013-06-25 20:03:00,
2013-06-25 15:08:00,83.8,68.0,29.69,SE,133,9.0,9.0,59,0.00,,SKC,0.00,VWS V14.01,2013-06-25 20:08:00,
2013-06-25 15:13:00,83.9,68.1,29.69,SE,132,7.0,11.0,59,0.00,,SKC,0.00,VWS V14.01,2013-06-25 20:13:00,
2013-06-25 15:18:00,83.5,67.7,29.69,SE,128,5.0,11.0,59,0.00,,SKC,0.00,VWS V14.01,2013-06-25 20:18:00,
2013-06-25 15:23:00,82.9,68.6,29.69,ESE,106,5.0,11.0,62,0.00,,SKC,0.00,VWS V14.01,2013-06-25 20:23:00,
2013-06-25 15:28:00,83.1,67.3,29.69,ESE,106,2.0,11.0,59,0.00,,SKC,0.00,VWS V14.01,2013-06-25 20:28:00,
2013-06-25 15:33:00,83.3,68.0,29.68,ENE,74,12.0,12.0,60,0.00,,SKC,0.00,VWS V14.01,2013-06-25 20:33:00,
2013-06-25 15:38:00,83.4,68.1,29.68,ESE,109,4.0,12.0,60,0.00,,SKC,0.00,VWS V14.01,2013-06-25 20:38:00,
2013-06-25 15:43:00,83.5,67.7,29.68,ESE,109,7.0,12.0,59,0.00,,SKC,0.00,VWS V14.01,2013-06-25 20:43:00,
2013-06-25 15:48:00,83.4,67.6,29.68,ESE,107,7.0,12.0,59,0.00,,SKC,0.00,VWS V14.01,2013-06-25 20:48:00,
2013-06-25 15:53:00,83.5,66.7,29.68,ESE,111,4.0,12.0,57,0.00,,SKC,0.00,VWS V14.01,2013-06-25 20:53:00,
2013-06-25 15:58:00,83.6,67.3,29.67,ESE,123,7.0,12.0,58,0.00,,SKC,0.00,VWS V14.01,2013-06-25 20:58:00,
2013-06-25 16:03:00,83.6,66.8,29.68,ESE,123,2.0,9.0,57,0.00,,SKC,0.00,VWS V14.01,2013-06-25 21:03:00,
2013-06-25 16:08:00,83.8,68.0,29.67,East,82,6.0,10.0,59,0.00,,SKC,0.00,VWS V14.01,2013-06-25 21:08:00,
2013-06-25 16:13:00,83.9,67.6,29.67,East,101,6.0,12.0,58,0.00,,SKC,0.00,VWS V14.01,2013-06-25 21:13:00,
2013-06-25 16:18:00,83.8,67.5,29.67,ESE,107,2.0,12.0,58,0.00,,SKC,0.00,VWS V14.01,2013-06-25 21:18:00,
2013-06-25 16:23:00,83.8,67.5,29.68,ENE,76,6.0,12.0,58,0.00,,SKC,0.00,VWS V14.01,2013-06-25 21:23:00,
2013-06-25 16:28:00,83.9,68.5,29.67,East,93,6.0,12.0,60,0.00,,SKC,0.00,VWS V14.01,2013-06-25 21:28:00,
2013-06-25 16:33:00,84.0,67.7,29.67,East,82,7.0,8.0,58,0.00,,SKC,0.00,VWS V14.01,2013-06-25 21:33:00,
2013-06-25 16:38:00,84.1,68.7,29.67,ESE,118,5.0,8.0,60,0.00,,SKC,0.00,VWS V14.01,2013-06-25 21:38:00,
2013-06-25 16:43:00,84.2,67.8,29.67,East,88,4.0,9.0,58,0.00,,SKC,0.00,VWS V14.01,2013-06-25 21:43:00,
2013-06-25 16:48:00,84.2,67.8,29.67,East,96,5.0,9.0,58,0.00,,SKC,0.00,VWS V14.01,2013-06-25 21:48:00,
2013-06-25 16:53:00,84.2,67.3,29.67,East,86,3.0,11.0,57,0.00,,SKC,0.00,VWS V14.01,2013-06-25 21:53:00,
2013-06-25 16:58:00,84.1,68.2,29.67,East,86,2.0,11.0,59,0.00,,SKC,0.00,VWS V14.01,2013-06-25 21:58:00,
2013-06-25 17:03:00,84.1,68.2,29.67,ESE,119,6.0,9.0,59,0.00,,SKC,0.00,VWS V14.01,2013-06-25 22:03:00,
2013-06-25 17:08:00,84.0,68.1,29.67,East,96,7.0,12.0,59,0.00,,SKC,0.00,VWS V14.01,2013-06-25 22:08:00,
2013-06-25 17:13:00,83.9,68.1,29.67,East,99,7.0,12.0,59,0.00,,SKC,0.00,VWS V14.01,2013-06-25 22:13:00,
2013-06-25 17:18:00,84.0,68.6,29.67,ESE,109,5.0,12.0,60,0.00,,SKC,0.00,VWS V14.01,2013-06-25 22:18:00,
2013-06-25 17:23:00,84.1,68.7,29.67,ESE,103,0.0,13.0,60,0.00,,SKC,0.00,VWS V14.01,2013-06-25 22:23:00,
2013-06-25 17:28:00,84.1,68.2,29.67,ESE,116,7.0,13.0,59,0.00,,SKC,0.00,VWS V14.01,2013-06-25 22:28:00,
2013-06-25 17:33:00,83.9,68.1,29.67,ESE,108,4.0,13.0,59,0.00,,SKC,0.00,VWS V14.01,2013-06-25 22:33:00,
2013-06-25 17:38:00,83.7,67.4,29.66,East,90,6.0,13.0,58,0.00,,SKC,0.00,VWS V14.01,2013-06-25 22:38:00,
2013-06-25 17:43:00,83.5,67.7,29.66,ESE,115,7.0,13.0,59,0.00,,SKC,0.00,VWS V14.01,2013-06-25 22:43:00,
2013-06-25 17:48:00,83.6,68.7,29.66,East,95,0.0,13.0,61,0.00,,SKC,0.00,VWS V14.01,2013-06-25 22:48:00,
2013-06-25 17:53:00,83.6,68.3,29.67,ESE,107,7.0,13.0,60,0.00,,SKC,0.00,VWS V14.01,2013-06-25 22:53:00,
2013-06-25 17:58:00,83.5,68.2,29.66,ESE,118,6.0,13.0,60,0.00,,SKC,0.00,VWS V14.01,2013-06-25 22:58:00,
2013-06-25 18:03:00,83.5,68.7,29.66,ESE,113,4.0,9.0,61,0.00,,SKC,0.00,VWS V14.01,2013-06-25 23:03:00,
2013-06-25 18:08:00,83.4,68.6,29.66,ESE,110,4.0,9.0,61,0.00,,SKC,0.00,VWS V14.01,2013-06-25 23:08:00,
2013-06-25 18:13:00,83.3,68.9,29.66,East,84,4.0,9.0,62,0.00,,SKC,0.00,VWS V14.01,2013-06-25 23:13:00,
2013-06-25 18:18:00,83.1,68.7,29.66,ESE,109,7.0,11.0,62,0.00,,SKC,0.00,VWS V14.01,2013-06-25 23:18:00,
2013-06-25 18:23:00,83.0,69.1,29.66,ESE,107,6.0,11.0,63,0.00,,SKC,0.00,VWS V14.01,2013-06-25 23:23:00,
2013-06-25 18:28:00,82.9,69.0,29.66,ESE,112,5.0,11.0,63,0.00,,SKC,0.00,VWS V14.01,2013-06-25 23:28:00,
2013-06-25 18:33:00,82.9,69.0,29.66,ENE,72,6.0,8.0,63,0.00,,SKC,0.00,VWS V14.01,2013-06-25 23:33:00,
2013-06-25 18:38:00,82.5,69.1,29.66,ESE,121,9.0,9.0,64,0.00,,SKC,0.00,VWS V14.01,2013-06-25 23:38:00,
2013-06-25 18:43:00,82.3,68.9,29.65,ESE,111,2.0,9.0,64,0.00,,SKC,0.00,VWS V14.01,2013-06-25 23:43:00,
2013-06-25 18:48:00,82.1,69.2,29.65,ESE,119,1.0,9.0,65,0.00,,SKC,0.00,VWS V14.01,2013-06-25 23:48:00,
2013-06-25 18:53:00,82.2,69.7,29.66,ESE,113,2.0,9.0,66,0.00,,SKC,0.00,VWS V14.01,2013-06-25 23:53:00,
2013-06-25 18:58:00,82.2,69.7,29.66,SE,126,2.0,9.0,66,0.00,,SKC,0.00,VWS V14.01,2013-06-25 23:58:00,
2013-06-25 19:03:00,82.1,69.6,29.66,ESE,105,4.0,9.0,66,0.00,,SKC,0.00,VWS V14.01,2013-06-26 00:03:00,
2013-06-25 19:08:00,81.9,70.3,29.66,ESE,121,0.0,9.0,68,0.00,,SKC,0.00,VWS V14.01,2013-06-26 00:08:00,
2013-06-25 19:13:00,81.7,70.1,29.66,SE,130,5.0,9.0,68,0.00,,SKC,0.00,VWS V14.01,2013-06-26 00:13:00,
2013-06-25 19:18:00,81.6,70.4,29.66,SE,128,4.0,9.0,69,0.00,,SKC,0.00,VWS V14.01,2013-06-26 00:18:00,
2013-06-25 19:23:00,81.6,70.0,29.66,SE,127,4.0,9.0,68,0.00,,SKC,0.00,VWS V14.01,2013-06-26 00:23:00,
2013-06-25 19:28:00,81.4,69.8,29.66,SE,131,0.0,9.0,68,0.00,,SKC,0.00,VWS V14.01,2013-06-26 00:28:00,
2013-06-25 19:33:00,81.2,70.1,29.65,ESE,118,0.0,6.0,69,0.00,,SKC,0.00,VWS V14.01,2013-06-26 00:33:00,
2013-06-25 19:38:00,81.0,70.3,29.65,East,83,4.0,8.0,70,0.00,,SKC,0.00,VWS V14.01,2013-06-26 00:38:00,
2013-06-25 19:43:00,80.8,70.5,29.65,SE,127,1.0,8.0,71,0.00,,SKC,0.00,VWS V14.01,2013-06-26 00:43:00,
2013-06-25 19:48:00,80.6,70.8,29.65,SE,127,0.0,8.0,72,0.00,,SKC,0.00,VWS V14.01,2013-06-26 00:48:00,
2013-06-25 19:53:00,80.3,70.9,29.65,SE,127,0.0,8.0,73,0.00,,SKC,0.00,VWS V14.01,2013-06-26 00:53:00,
2013-06-25 19:58:00,80.2,70.8,29.65,ESE,123,0.0,8.0,73,0.00,,SKC,0.00,VWS V14.01,2013-06-26 00:58:00,
2013-06-25 20:03:00,80.2,70.8,29.65,ESE,123,0.0,1.0,73,0.00,,SKC,0.00,VWS V14.01,2013-06-26 01:03:00,
2013-06-25 20:08:00,80.0,71.0,29.65,ESE,121,0.0,5.0,74,0.00,,SKC,0.00,VWS V14.01,2013-06-26 01:08:00,
2013-06-25 20:13:00,79.8,71.2,29.65,ESE,121,0.0,5.0,75,0.00,,SKC,0.00,VWS V14.01,2013-06-26 01:13:00,
2013-06-25 20:18:00,79.5,70.9,29.65,ESE,121,2.0,5.0,75,0.00,,SKC,0.00,VWS V14.01,2013-06-26 01:18:00,
2013-06-25 20:23:00,79.3,71.1,29.64,ESE,121,0.0,6.0,76,0.00,,SKC,0.00,VWS V14.01,2013-06-26 01:23:00,
2013-06-25 20:28:00,79.0,71.2,29.64,ESE,121,0.0,6.0,77,0.00,,SKC,0.00,VWS V14.01,2013-06-26 01:28:00,
2013-06-25 20:33:00,78.8,71.0,29.64,ESE,121,0.0,0.0,77,0.00,,SKC,0.00,VWS V14.01,2013-06-26 01:33:00,
2013-06-25 20:38:00,78.5,71.1,29.64,ESE,121,0.0,0.0,78,0.00,,SKC,0.00,VWS V14.01,2013-06-26 01:38:00,
2013-06-25 20:43:00,78.2,71.2,29.64,ESE,121,0.0,0.0,79,0.00,,SKC,0.00,VWS V14.01,2013-06-26 01:43:00,
2013-06-25 20:48:00,78.0,71.3,29.64,ESE,121,0.0,0.0,80,0.00,,SKC,0.00,VWS V14.01,2013-06-26 01:48:00,
2013-06-25 20:53:00,77.6,71.3,29.64,ESE,121,0.0,0.0,81,0.00,,SKC,0.00,VWS V14.01,2013-06-26 01:53:00,
2013-06-25 20:58:00,77.0,71.1,29.64,ESE,121,0.0,0.0,82,0.00,,SKC,0.00,VWS V14.01,2013-06-26 01:58:00,
2013-06-25 21:03:00,76.3,70.8,29.64,ESE,121,0.0,0.0,83,0.00,,SKC,0.00,VWS V14.01,2013-06-26 02:03:00,
2013-06-25 21:08:00,75.7,70.9,29.64,ESE,121,0.0,1.0,85,0.00,,SKC,0.00,VWS V14.01,2013-06-26 02:08:00,
2013-06-25 21:13:00,75.4,70.9,29.64,ESE,121,0.0,1.0,86,0.00,,SKC,0.00,VWS V14.01,2013-06-26 02:13:00,
2013-06-25 21:18:00,75.3,70.8,29.64,ESE,121,0.0,1.0,86,0.00,,SKC,0.00,VWS V14.01,2013-06-26 02:18:00,
2013-06-25 21:23:00,75.3,70.8,29.64,ESE,121,0.0,1.0,86,0.00,,SKC,0.00,VWS V14.01,2013-06-26 02:23:00,
2013-06-25 21:28:00,75.0,70.5,29.64,ESE,121,0.0,1.0,86,0.00,,SKC,0.00,VWS V14.01,2013-06-26 02:28:00,
2013-06-25 21:33:00,74.6,70.5,29.64,ESE,121,0.0,0.0,87,0.00,,SKC,0.00,VWS V14.01,2013-06-26 02:33:00,
2013-06-25 21:38:00,74.1,70.0,29.64,ESE,121,0.0,1.0,87,0.00,,SKC,0.00,VWS V14.01,2013-06-26 02:38:00,
2013-06-25 21:43:00,73.7,70.3,29.64,ESE,121,0.0,1.0,89,0.00,,SKC,0.00,VWS V14.01,2013-06-26 02:43:00,
2013-06-25 21:48:00,73.7,70.3,29.64,ESE,121,0.0,1.0,89,0.00,,SKC,0.00,VWS V14.01,2013-06-26 02:48:00,
2013-06-25 21:53:00,73.6,70.5,29.64,ESE,121,0.0,1.0,90,0.00,,SKC,0.00,VWS V14.01,2013-06-26 02:53:00,
2013-06-25 21:58:00,73.8,70.7,29.64,ESE,121,0.0,1.0,90,0.00,,SKC,0.00,VWS V14.01,2013-06-26 02:58:00,
2013-06-25 22:03:00,73.9,70.8,29.64,ESE,121,0.0,0.0,90,0.00,,SKC,0.00,VWS V14.01,2013-06-26 03:03:00,
2013-06-25 22:08:00,74.0,70.6,29.64,ESE,121,0.0,0.0,89,0.00,,SKC,0.00,VWS V14.01,2013-06-26 03:08:00,
2013-06-25 22:13:00,74.0,70.6,29.64,ESE,121,0.0,1.0,89,0.00,,SKC,0.00,VWS V14.01,2013-06-26 03:13:00,
2013-06-25 22:18:00,74.0,70.6,29.64,ESE,121,0.0,1.0,89,0.00,,SKC,0.00,VWS V14.01,2013-06-26 03:18:00,
2013-06-25 22:23:00,74.0,70.6,29.64,ESE,121,0.0,1.0,89,0.00,,SKC,0.00,VWS V14.01,2013-06-26 03:23:00,
2013-06-25 22:28:00,74.0,70.6,29.64,ESE,121,0.0,1.0,89,0.00,,SKC,0.00,VWS V14.01,2013-06-26 03:28:00,
2013-06-25 22:33:00,73.9,70.5,29.64,ESE,121,0.0,0.0,89,0.00,,SKC,0.00,VWS V14.01,2013-06-26 03:33:00,
2013-06-25 22:38:00,73.7,70.3,29.64,ESE,121,0.0,0.0,89,0.00,,SKC,0.00,VWS V14.01,2013-06-26 03:38:00,
2013-06-25 22:43:00,73.5,70.4,29.64,ESE,121,0.0,0.0,90,0.00,,SKC,0.00,VWS V14.01,2013-06-26 03:43:00,
2013-06-25 22:48:00,73.4,70.6,29.64,ESE,121,0.0,0.0,91,0.00,,SKC,0.00,VWS V14.01,2013-06-26 03:48:00,
2013-06-25 22:53:00,73.4,70.3,29.65,ESE,121,0.0,0.0,90,0.00,,SKC,0.00,VWS V14.01,2013-06-26 03:53:00,
2013-06-25 22:58:00,73.2,70.4,29.64,ESE,121,0.0,1.0,91,0.00,,SKC,0.00,VWS V14.01,2013-06-26 03:58:00,
2013-06-25 23:01:00,73.2,70.4,29.64,ESE,121,0.0,0.0,91,0.00,,SKC,0.00,VWS V14.01,2013-06-26 04:01:00,
2013-06-25 23:06:00,73.2,70.4,29.64,ESE,121,0.0,1.0,91,0.00,,SKC,0.00,VWS V14.01,2013-06-26 04:06:00,
2013-06-25 23:11:00,73.2,70.4,29.64,ESE,121,0.0,1.0,91,0.00,,SKC,0.00,VWS V14.01,2013-06-26 04:11:00,
2013-06-25 23:16:00,73.3,70.5,29.64,ESE,121,0.0,1.0,91,0.00,,SKC,0.00,VWS V14.01,2013-06-26 04:16:00,
2013-06-25 23:21:00,73.3,70.5,29.64,ESE,121,0.0,1.0,91,0.00,,SKC,0.00,VWS V14.01,2013-06-26 04:21:00,
2013-06-25 23:26:00,73.2,70.4,29.64,ESE,121,0.0,1.0,91,0.00,,SKC,0.00,VWS V14.01,2013-06-26 04:26:00,
2013-06-25 23:31:00,73.1,70.3,29.64,ESE,121,0.0,0.0,91,0.00,,SKC,0.00,VWS V14.01,2013-06-26 04:31:00,
2013-06-25 23:36:00,73.0,70.2,29.64,ESE,121,0.0,0.0,91,0.00,,SKC,0.00,VWS V14.01,2013-06-26 04:36:00,
2013-06-25 23:41:00,73.0,70.5,29.64,ESE,121,0.0,0.0,92,0.00,,SKC,0.00,VWS V14.01,2013-06-26 04:41:00,
2013-06-25 23:46:00,72.9,70.1,29.64,ESE,121,0.0,0.0,91,0.00,,SKC,0.00,VWS V14.01,2013-06-26 04:46:00,
2013-06-25 23:51:00,73.0,70.5,29.64,ESE,121,0.0,1.0,92,0.00,,SKC,0.00,VWS V14.01,2013-06-26 04:51:00,
2013-06-25 23:56:00,73.1,70.6,29.63,ESE,121,0.0,1.0,92,0.00,,SKC,0.00,VWS V14.01,2013-06-26 04:56:00,